sensor_id;sensor_type;location;lat;lon;timestamp;pressure;altitude;pressure_sealevel;temperature;humidity
16100;BME280;8154;50.830;12.082;2023-07-31T00:01:44;99145.38;;;26.27;35.64
16100;BME280;8154;50.830;12.082;2023-07-31T00:04:11;99138.97;;;26.28;35.92
16100;BME280;8154;50.830;12.082;2023-07-31T00:06:38;99127.28;;;26.23;35.63
16100;BME280;8154;50.830;12.082;2023-07-31T00:09:06;99145.53;;;26.32;35.79
16100;BME280;8154;50.830;12.082;2023-07-31T00:11:34;99134.59;;;26.34;35.83
16100;BME280;8154;50.830;12.082;2023-07-31T00:14:00;99125.16;;;26.31;35.86
16100;BME280;8154;50.830;12.082;2023-07-31T00:16:28;99127.44;;;26.28;35.76
16100;BME280;8154;50.830;12.082;2023-07-31T00:18:58;99130.72;;;26.30;35.61
16100;BME280;8154;50.830;12.082;2023-07-31T00:21:24;99124.31;;;26.31;35.74
16100;BME280;8154;50.830;12.082;2023-07-31T00:23:51;99122.59;;;26.36;35.68
16100;BME280;8154;50.830;12.082;2023-07-31T00:26:18;99129.22;;;26.34;35.79
16100;BME280;8154;50.830;12.082;2023-07-31T00:28:46;99126.09;;;26.37;35.62
16100;BME280;8154;50.830;12.082;2023-07-31T00:31:13;99116.34;;;26.24;35.63
16100;BME280;8154;50.830;12.082;2023-07-31T00:33:39;99115.31;;;26.25;35.79
16100;BME280;8154;50.830;12.082;2023-07-31T00:36:05;99108.25;;;26.31;35.68
16100;BME280;8154;50.830;12.082;2023-07-31T00:38:32;99104.28;;;26.33;35.62
16100;BME280;8154;50.830;12.082;2023-07-31T00:40:59;99103.25;;;26.34;35.49
16100;BME280;8154;50.830;12.082;2023-07-31T00:43:26;99105.13;;;26.34;35.41
16100;BME280;8154;50.830;12.082;2023-07-31T00:45:54;99097.97;;;26.28;35.70
16100;BME280;8154;50.830;12.082;2023-07-31T00:48:21;99100.66;;;26.28;35.63
16100;BME280;8154;50.830;12.082;2023-07-31T00:50:48;99103.25;;;26.34;35.47
16100;BME280;8154;50.830;12.082;2023-07-31T00:53:15;99100.13;;;26.37;35.46
16100;BME280;8154;50.830;12.082;2023-07-31T00:55:42;99095.34;;;26.39;35.39
16100;BME280;8154;50.830;12.082;2023-07-31T00:58:10;99099.09;;;26.38;35.54
16100;BME280;8154;50.830;12.082;2023-07-31T01:00:37;99087.63;;;26.31;35.45
16100;BME280;8154;50.830;12.082;2023-07-31T01:03:03;99090.44;;;26.36;35.39
16100;BME280;8154;50.830;12.082;2023-07-31T01:05:45;99085.63;;;26.27;35.50
16100;BME280;8154;50.830;12.082;2023-07-31T01:09:00;99096.47;;;26.32;35.63
16100;BME280;8154;50.830;12.082;2023-07-31T01:11:31;99104.22;;;26.22;35.52
16100;BME280;8154;50.830;12.082;2023-07-31T01:14:00;99097.44;;;26.19;35.67
16100;BME280;8154;50.830;12.082;2023-07-31T01:16:27;99106.66;;;26.23;35.89
16100;BME280;8154;50.830;12.082;2023-07-31T01:18:54;99104.59;;;26.25;35.81
16100;BME280;8154;50.830;12.082;2023-07-31T01:27:04;99102.72;;;26.26;35.76
16100;BME280;8154;50.830;12.082;2023-07-31T01:32:11;99078.00;;;26.06;36.13
16100;BME280;8154;50.830;12.082;2023-07-31T01:34:41;99091.28;;;26.19;36.01
16100;BME280;8154;50.830;12.082;2023-07-31T01:37:07;99086.06;;;26.24;36.07
16100;BME280;8154;50.830;12.082;2023-07-31T01:39:35;99082.84;;;26.15;36.16
16100;BME280;8154;50.830;12.082;2023-07-31T01:42:02;99084.91;;;26.13;36.22
16100;BME280;8154;50.830;12.082;2023-07-31T01:44:30;99084.03;;;26.19;35.98
16100;BME280;8154;50.830;12.082;2023-07-31T01:46:56;99080.50;;;26.25;35.92
16100;BME280;8154;50.830;12.082;2023-07-31T01:49:25;99082.94;;;26.27;36.16
16100;BME280;8154;50.830;12.082;2023-07-31T01:51:52;99081.28;;;26.26;36.07
16100;BME280;8154;50.830;12.082;2023-07-31T01:54:19;99080.03;;;26.28;36.11
16100;BME280;8154;50.830;12.082;2023-07-31T01:56:45;99052.78;;;26.13;35.91
16100;BME280;8154;50.830;12.082;2023-07-31T01:59:11;99065.81;;;26.28;36.07
16100;BME280;8154;50.830;12.082;2023-07-31T02:01:37;99058.38;;;26.30;36.21
16100;BME280;8154;50.830;12.082;2023-07-31T02:04:03;99054.06;;;26.29;36.20
16100;BME280;8154;50.830;12.082;2023-07-31T02:06:30;99047.66;;;26.30;36.12
16100;BME280;8154;50.830;12.082;2023-07-31T02:08:57;99050.13;;;26.31;36.33
16100;BME280;8154;50.830;12.082;2023-07-31T02:11:23;99041.47;;;26.29;36.32
16100;BME280;8154;50.830;12.082;2023-07-31T02:13:51;99042.00;;;26.20;36.47
16100;BME280;8154;50.830;12.082;2023-07-31T02:16:18;99030.63;;;26.06;36.62
16100;BME280;8154;50.830;12.082;2023-07-31T02:18:44;99023.63;;;26.05;36.74
16100;BME280;8154;50.830;12.082;2023-07-31T02:21:11;99026.38;;;26.17;36.62
16100;BME280;8154;50.830;12.082;2023-07-31T02:23:37;99014.59;;;26.18;36.55
16100;BME280;8154;50.830;12.082;2023-07-31T02:26:04;99026.75;;;26.20;36.41
16100;BME280;8154;50.830;12.082;2023-07-31T02:28:30;99015.00;;;26.21;36.47
16100;BME280;8154;50.830;12.082;2023-07-31T02:30:57;99017.06;;;26.01;36.87
16100;BME280;8154;50.830;12.082;2023-07-31T02:33:23;99020.38;;;25.97;37.04
16100;BME280;8154;50.830;12.082;2023-07-31T02:35:50;99020.28;;;26.10;36.84
16100;BME280;8154;50.830;12.082;2023-07-31T02:38:16;99020.34;;;26.03;36.91
16100;BME280;8154;50.830;12.082;2023-07-31T02:40:42;99023.75;;;26.10;36.67
16100;BME280;8154;50.830;12.082;2023-07-31T02:43:09;99019.69;;;26.08;36.79
16100;BME280;8154;50.830;12.082;2023-07-31T02:45:35;99014.09;;;26.09;36.97
16100;BME280;8154;50.830;12.082;2023-07-31T02:48:02;99022.75;;;26.11;36.76
16100;BME280;8154;50.830;12.082;2023-07-31T02:50:33;99024.69;;;25.98;37.06
16100;BME280;8154;50.830;12.082;2023-07-31T02:52:59;99028.84;;;25.94;37.24
16100;BME280;8154;50.830;12.082;2023-07-31T02:55:25;99026.16;;;26.00;37.20
16100;BME280;8154;50.830;12.082;2023-07-31T02:57:51;99024.00;;;26.09;37.00
16100;BME280;8154;50.830;12.082;2023-07-31T03:00:18;99030.63;;;26.06;37.05
16100;BME280;8154;50.830;12.082;2023-07-31T03:02:45;99028.78;;;26.07;36.87
16100;BME280;8154;50.830;12.082;2023-07-31T03:05:11;99036.59;;;26.08;36.93
16100;BME280;8154;50.830;12.082;2023-07-31T03:07:37;99032.47;;;26.06;37.06
16100;BME280;8154;50.830;12.082;2023-07-31T03:10:03;99029.19;;;26.04;37.24
16100;BME280;8154;50.830;12.082;2023-07-31T03:12:30;99037.59;;;26.07;37.08
16100;BME280;8154;50.830;12.082;2023-07-31T03:14:56;99042.25;;;25.94;37.34
16100;BME280;8154;50.830;12.082;2023-07-31T03:17:22;99038.44;;;25.83;37.67
16100;BME280;8154;50.830;12.082;2023-07-31T03:19:49;99035.03;;;25.94;37.15
16100;BME280;8154;50.830;12.082;2023-07-31T03:22:15;99001.19;;;25.81;37.12
16100;BME280;8154;50.830;12.082;2023-07-31T03:24:41;99031.69;;;25.99;37.41
16100;BME280;8154;50.830;12.082;2023-07-31T03:27:08;99019.53;;;26.03;37.33
16100;BME280;8154;50.830;12.082;2023-07-31T03:29:34;99021.38;;;26.02;37.30
16100;BME280;8154;50.830;12.082;2023-07-31T03:32:00;99028.38;;;26.03;37.45
16100;BME280;8154;50.830;12.082;2023-07-31T03:34:27;99020.38;;;25.97;37.21
16100;BME280;8154;50.830;12.082;2023-07-31T03:36:56;99020.50;;;25.83;37.68
16100;BME280;8154;50.830;12.082;2023-07-31T03:39:23;99012.91;;;25.80;37.77
16100;BME280;8154;50.830;12.082;2023-07-31T03:41:50;98940.44;;;25.39;37.52
16100;BME280;8154;50.830;12.082;2023-07-31T03:44:18;99015.25;;;25.95;37.53
16100;BME280;8154;50.830;12.082;2023-07-31T03:46:45;99017.31;;;25.93;37.41
16100;BME280;8154;50.830;12.082;2023-07-31T03:49:11;99014.41;;;25.95;37.54
16100;BME280;8154;50.830;12.082;2023-07-31T03:51:37;99019.56;;;25.96;37.43
16100;BME280;8154;50.830;12.082;2023-07-31T03:54:04;99016.97;;;25.90;37.46
16100;BME280;8154;50.830;12.082;2023-07-31T03:56:30;99013.81;;;25.74;37.72
16100;BME280;8154;50.830;12.082;2023-07-31T03:58:56;99017.47;;;25.80;37.80
16100;BME280;8154;50.830;12.082;2023-07-31T04:01:23;99006.03;;;25.91;37.69
16100;BME280;8154;50.830;12.082;2023-07-31T04:03:49;99015.47;;;25.94;37.35
16100;BME280;8154;50.830;12.082;2023-07-31T04:06:15;98997.78;;;25.93;37.68
16100;BME280;8154;50.830;12.082;2023-07-31T04:08:44;99012.56;;;25.95;37.50
16100;BME280;8154;50.830;12.082;2023-07-31T04:11:15;99005.94;;;25.98;37.63
16100;BME280;8154;50.830;12.082;2023-07-31T04:13:47;98987.56;;;25.83;37.40
16100;BME280;8154;50.830;12.082;2023-07-31T04:16:17;98998.34;;;25.95;37.54
16100;BME280;8154;50.830;12.082;2023-07-31T04:18:44;98994.72;;;25.89;37.43
16100;BME280;8154;50.830;12.082;2023-07-31T04:21:14;99001.25;;;25.93;37.74
16100;BME280;8154;50.830;12.082;2023-07-31T04:23:41;99004.16;;;25.92;37.61
16100;BME280;8154;50.830;12.082;2023-07-31T04:26:07;98992.03;;;25.89;37.57
16100;BME280;8154;50.830;12.082;2023-07-31T04:28:33;98982.75;;;25.92;37.76
16100;BME280;8154;50.830;12.082;2023-07-31T04:31:00;98983.78;;;25.91;37.77
16100;BME280;8154;50.830;12.082;2023-07-31T04:33:26;98987.06;;;25.93;37.59
16100;BME280;8154;50.830;12.082;2023-07-31T04:35:53;98982.50;;;25.93;37.62
16100;BME280;8154;50.830;12.082;2023-07-31T04:38:20;98981.94;;;25.91;37.89
16100;BME280;8154;50.830;12.082;2023-07-31T04:40:47;98981.09;;;25.72;38.22
16100;BME280;8154;50.830;12.082;2023-07-31T04:43:13;98972.91;;;25.67;38.25
16100;BME280;8154;50.830;12.082;2023-07-31T04:45:44;98977.97;;;25.75;37.92
16100;BME280;8154;50.830;12.082;2023-07-31T04:48:11;98969.06;;;25.81;37.99
16100;BME280;8154;50.830;12.082;2023-07-31T04:50:37;98979.31;;;25.84;38.07
16100;BME280;8154;50.830;12.082;2023-07-31T04:53:03;98982.22;;;25.83;37.98
16100;BME280;8154;50.830;12.082;2023-07-31T04:55:30;98975.16;;;25.88;37.75
16100;BME280;8154;50.830;12.082;2023-07-31T04:57:58;98975.59;;;25.85;38.06
16100;BME280;8154;50.830;12.082;2023-07-31T05:00:25;98977.25;;;25.87;37.94
16100;BME280;8154;50.830;12.082;2023-07-31T05:02:51;98970.25;;;25.85;37.90
16100;BME280;8154;50.830;12.082;2023-07-31T05:05:18;98987.97;;;25.87;38.02
16100;BME280;8154;50.830;12.082;2023-07-31T05:07:44;98980.72;;;25.87;38.13
16100;BME280;8154;50.830;12.082;2023-07-31T05:10:10;98976.88;;;25.83;38.09
16100;BME280;8154;50.830;12.082;2023-07-31T05:12:37;98984.00;;;25.89;37.84
16100;BME280;8154;50.830;12.082;2023-07-31T05:15:04;98984.69;;;25.84;38.05
16100;BME280;8154;50.830;12.082;2023-07-31T05:17:31;98982.22;;;25.83;37.79
16100;BME280;8154;50.830;12.082;2023-07-31T05:19:58;98986.81;;;25.76;38.19
16100;BME280;8154;50.830;12.082;2023-07-31T05:22:27;98972.91;;;25.67;38.34
16100;BME280;8154;50.830;12.082;2023-07-31T05:24:54;98968.97;;;25.70;38.40
16100;BME280;8154;50.830;12.082;2023-07-31T05:27:20;98960.88;;;25.76;38.27
16100;BME280;8154;50.830;12.082;2023-07-31T05:29:46;98951.94;;;25.82;38.22
16100;BME280;8154;50.830;12.082;2023-07-31T05:32:16;98947.66;;;25.81;38.12
16100;BME280;8154;50.830;12.082;2023-07-31T05:34:43;98951.22;;;25.75;38.21
16100;BME280;8154;50.830;12.082;2023-07-31T05:37:10;98958.03;;;25.71;38.39
16100;BME280;8154;50.830;12.082;2023-07-31T05:39:37;98962.72;;;25.76;38.26
16100;BME280;8154;50.830;12.082;2023-07-31T05:42:04;98970.75;;;25.76;38.07
16100;BME280;8154;50.830;12.082;2023-07-31T05:44:30;98963.31;;;25.78;38.16
16100;BME280;8154;50.830;12.082;2023-07-31T05:46:57;98944.06;;;25.69;38.36
16100;BME280;8154;50.830;12.082;2023-07-31T05:49:23;98953.00;;;25.81;38.23
16100;BME280;8154;50.830;12.082;2023-07-31T05:51:49;98949.50;;;25.81;38.18
16100;BME280;8154;50.830;12.082;2023-07-31T05:54:16;98951.00;;;25.77;38.33
16100;BME280;8154;50.830;12.082;2023-07-31T05:56:43;98938.84;;;25.74;38.39
16100;BME280;8154;50.830;12.082;2023-07-31T05:59:11;98960.88;;;25.76;38.22
16100;BME280;8154;50.830;12.082;2023-07-31T06:01:38;98953.88;;;25.75;38.19
16100;BME280;8154;50.830;12.082;2023-07-31T06:04:04;98953.13;;;25.68;38.45
16100;BME280;8154;50.830;12.082;2023-07-31T06:06:31;98955.50;;;25.58;38.66
16100;BME280;8154;50.830;12.082;2023-07-31T06:08:57;98955.19;;;25.48;38.99
16100;BME280;8154;50.830;12.082;2023-07-31T06:11:23;98964.72;;;25.62;38.66
16100;BME280;8154;50.830;12.082;2023-07-31T06:13:49;98935.56;;;25.54;38.67
16100;BME280;8154;50.830;12.082;2023-07-31T06:16:16;98961.00;;;25.63;38.65
16100;BME280;8154;50.830;12.082;2023-07-31T06:18:43;98942.84;;;25.47;38.95
16100;BME280;8154;50.830;12.082;2023-07-31T06:21:10;98958.28;;;25.45;39.37
16100;BME280;8154;50.830;12.082;2023-07-31T06:23:37;98960.38;;;25.43;39.14
16100;BME280;8154;50.830;12.082;2023-07-31T06:26:03;98923.47;;;25.27;39.38
16100;BME280;8154;50.830;12.082;2023-07-31T06:28:31;98959.19;;;25.39;39.57
16100;BME280;8154;50.830;12.082;2023-07-31T06:30:58;98960.22;;;25.38;39.41
16100;BME280;8154;50.830;12.082;2023-07-31T06:33:25;98953.69;;;25.28;39.50
16100;BME280;8154;50.830;12.082;2023-07-31T06:35:51;98953.22;;;25.37;39.38
16100;BME280;8154;50.830;12.082;2023-07-31T06:38:24;98960.16;;;25.45;39.28
16100;BME280;8154;50.830;12.082;2023-07-31T06:40:51;98977.59;;;25.54;39.38
16100;BME280;8154;50.830;12.082;2023-07-31T06:43:17;98949.66;;;25.43;39.04
16100;BME280;8154;50.830;12.082;2023-07-31T06:45:44;98971.22;;;25.48;38.90
16100;BME280;8154;50.830;12.082;2023-07-31T06:48:10;98959.13;;;25.46;39.21
16100;BME280;8154;50.830;12.082;2023-07-31T06:50:37;98966.16;;;25.40;39.29
16100;BME280;8154;50.830;12.082;2023-07-31T06:53:03;98960.44;;;25.37;39.53
16100;BME280;8154;50.830;12.082;2023-07-31T06:55:30;98971.94;;;25.37;39.61
16100;BME280;8154;50.830;12.082;2023-07-31T06:57:56;98968.69;;;25.35;39.33
16100;BME280;8154;50.830;12.082;2023-07-31T07:00:24;98965.81;;;25.37;39.41
16100;BME280;8154;50.830;12.082;2023-07-31T07:02:51;98956.13;;;25.36;39.49
16100;BME280;8154;50.830;12.082;2023-07-31T07:05:24;98956.28;;;25.41;39.34
16100;BME280;8154;50.830;12.082;2023-07-31T07:07:51;98952.22;;;25.38;39.71
16100;BME280;8154;50.830;12.082;2023-07-31T07:10:18;98959.84;;;25.35;39.48
16100;BME280;8154;50.830;12.082;2023-07-31T07:12:44;98960.44;;;25.37;39.60
16100;BME280;8154;50.830;12.082;2023-07-31T07:15:11;98969.50;;;25.36;39.47
16100;BME280;8154;50.830;12.082;2023-07-31T07:17:38;98975.66;;;25.36;39.73
16100;BME280;8154;50.830;12.082;2023-07-31T07:20:05;98983.09;;;25.34;39.64
16100;BME280;8154;50.830;12.082;2023-07-31T07:22:32;98979.19;;;25.37;39.51
16100;BME280;8154;50.830;12.082;2023-07-31T07:25:00;98974.63;;;25.31;39.66
16100;BME280;8154;50.830;12.082;2023-07-31T07:27:27;98987.13;;;25.43;39.42
16100;BME280;8154;50.830;12.082;2023-07-31T07:29:54;98995.16;;;25.43;39.49
16100;BME280;8154;50.830;12.082;2023-07-31T07:32:21;98980.00;;;25.31;39.54
16100;BME280;8154;50.830;12.082;2023-07-31T07:34:48;98995.59;;;25.40;39.36
16100;BME280;8154;50.830;12.082;2023-07-31T07:37:15;98975.22;;;25.39;39.42
16100;BME280;8154;50.830;12.082;2023-07-31T07:39:42;98984.00;;;25.46;39.40
16100;BME280;8154;50.830;12.082;2023-07-31T07:42:09;98990.56;;;25.50;39.26
16100;BME280;8154;50.830;12.082;2023-07-31T07:44:35;98986.06;;;25.51;39.38
16100;BME280;8154;50.830;12.082;2023-07-31T07:47:01;98983.66;;;25.43;39.39
16100;BME280;8154;50.830;12.082;2023-07-31T07:49:28;98977.28;;;25.37;39.39
16100;BME280;8154;50.830;12.082;2023-07-31T07:51:55;98989.97;;;25.48;39.26
16100;BME280;8154;50.830;12.082;2023-07-31T07:54:22;98984.63;;;25.48;39.20
16100;BME280;8154;50.830;12.082;2023-07-31T07:56:49;98982.94;;;25.54;39.26
16100;BME280;8154;50.830;12.082;2023-07-31T07:59:16;98977.94;;;25.57;39.08
16100;BME280;8154;50.830;12.082;2023-07-31T08:01:43;98972.94;;;25.43;39.46
16100;BME280;8154;50.830;12.082;2023-07-31T08:04:12;98963.38;;;25.29;39.52
16100;BME280;8154;50.830;12.082;2023-07-31T08:06:38;98975.97;;;25.46;39.36
16100;BME280;8154;50.830;12.082;2023-07-31T08:09:05;98962.25;;;25.43;39.37
16100;BME280;8154;50.830;12.082;2023-07-31T08:11:32;98947.53;;;25.27;39.43
16100;BME280;8154;50.830;12.082;2023-07-31T08:13:59;98967.59;;;25.43;39.08
16100;BME280;8154;50.830;12.082;2023-07-31T08:16:26;98971.94;;;25.37;39.53
16100;BME280;8154;50.830;12.082;2023-07-31T08:18:52;98971.59;;;25.27;39.48
16100;BME280;8154;50.830;12.082;2023-07-31T08:21:19;98966.63;;;25.31;39.35
16100;BME280;8154;50.830;12.082;2023-07-31T08:23:46;98973.97;;;25.42;39.54
16100;BME280;8154;50.830;12.082;2023-07-31T08:26:17;98970.63;;;25.46;39.24
16100;BME280;8154;50.830;12.082;2023-07-31T08:28:44;98969.00;;;25.45;39.53
16100;BME280;8154;50.830;12.082;2023-07-31T08:31:11;98968.25;;;25.38;39.54
16100;BME280;8154;50.830;12.082;2023-07-31T08:33:39;98969.94;;;25.33;39.54
16100;BME280;8154;50.830;12.082;2023-07-31T08:36:07;98944.25;;;25.25;39.64
16100;BME280;8154;50.830;12.082;2023-07-31T08:38:33;98955.91;;;25.37;39.55
16100;BME280;8154;50.830;12.082;2023-07-31T08:41:03;98959.41;;;25.31;39.61
16100;BME280;8154;50.830;12.082;2023-07-31T08:43:31;98968.09;;;25.33;39.58
16100;BME280;8154;50.830;12.082;2023-07-31T08:45:59;98970.53;;;25.35;39.68
16100;BME280;8154;50.830;12.082;2023-07-31T08:48:26;98968.28;;;25.32;39.64
16100;BME280;8154;50.830;12.082;2023-07-31T08:50:56;98960.44;;;25.37;39.45
16100;BME280;8154;50.830;12.082;2023-07-31T08:53:22;98968.25;;;25.38;39.53
16100;BME280;8154;50.830;12.082;2023-07-31T08:55:49;98958.22;;;25.34;39.78
16100;BME280;8154;50.830;12.082;2023-07-31T08:58:20;98959.84;;;25.35;39.79
16100;BME280;8154;50.830;12.082;2023-07-31T09:00:51;98953.47;;;25.29;39.64
16100;BME280;8154;50.830;12.082;2023-07-31T09:03:20;98955.13;;;25.30;39.70
16100;BME280;8154;50.830;12.082;2023-07-31T09:05:48;98951.41;;;25.31;39.94
16100;BME280;8154;50.830;12.082;2023-07-31T09:08:18;98955.34;;;25.29;39.71
16100;BME280;8154;50.830;12.082;2023-07-31T09:10:46;98936.41;;;25.30;39.85
16100;BME280;8154;50.830;12.082;2023-07-31T09:13:14;98923.47;;;25.27;39.56
16100;BME280;8154;50.830;12.082;2023-07-31T09:15:43;98957.56;;;25.32;39.77
16100;BME280;8154;50.830;12.082;2023-07-31T09:18:11;98943.19;;;25.26;39.70
16100;BME280;8154;50.830;12.082;2023-07-31T09:20:38;98950.78;;;25.29;39.90
16100;BME280;8154;50.830;12.082;2023-07-31T09:23:11;98936.22;;;25.25;40.01
16100;BME280;8154;50.830;12.082;2023-07-31T09:25:40;98953.31;;;25.24;39.65
16100;BME280;8154;50.830;12.082;2023-07-31T09:28:10;98950.66;;;25.24;39.82
16100;BME280;8154;50.830;12.082;2023-07-31T09:30:49;98953.69;;;25.28;40.15
16100;BME280;8154;50.830;12.082;2023-07-31T09:33:16;98955.13;;;25.30;39.96
16100;BME280;8154;50.830;12.082;2023-07-31T09:35:43;98954.50;;;25.28;40.01
16100;BME280;8154;50.830;12.082;2023-07-31T09:38:13;98955.34;;;25.29;40.04
16100;BME280;8154;50.830;12.082;2023-07-31T09:40:47;98937.72;;;25.21;39.97
16100;BME280;8154;50.830;12.082;2023-07-31T09:43:19;98939.06;;;25.30;39.96
16100;BME280;8154;50.830;12.082;2023-07-31T09:45:47;98935.34;;;25.31;40.12
16100;BME280;8154;50.830;12.082;2023-07-31T09:48:15;98926.41;;;25.19;40.07
16100;BME280;8154;50.830;12.082;2023-07-31T09:50:47;98928.19;;;25.25;40.11
16100;BME280;8154;50.830;12.082;2023-07-31T09:53:15;98903.38;;;25.18;39.94
16100;BME280;8154;50.830;12.082;2023-07-31T09:55:43;98926.72;;;25.29;39.94
16100;BME280;8154;50.830;12.082;2023-07-31T09:58:13;98922.63;;;25.27;40.34
16100;BME280;8154;50.830;12.082;2023-07-31T10:00:40;98927.75;;;25.28;40.07
16100;BME280;8154;50.830;12.082;2023-07-31T10:03:09;98925.69;;;25.30;40.42
16100;BME280;8154;50.830;12.082;2023-07-31T10:05:40;98916.44;;;25.33;40.22
16100;BME280;8154;50.830;12.082;2023-07-31T10:08:10;98824.78;;;24.77;40.43
16100;BME280;8154;50.830;12.082;2023-07-31T10:10:44;98908.44;;;25.26;40.48
16100;BME280;8154;50.830;12.082;2023-07-31T10:13:12;98912.97;;;25.26;40.42
16100;BME280;8154;50.830;12.082;2023-07-31T10:15:40;98911.31;;;25.25;40.52
16100;BME280;8154;50.830;12.082;2023-07-31T10:18:13;98906.50;;;25.15;40.30
16100;BME280;8154;50.830;12.082;2023-07-31T10:20:42;98916.91;;;25.23;40.45
16100;BME280;8154;50.830;12.082;2023-07-31T10:23:11;98907.69;;;25.19;40.46
16100;BME280;8154;50.830;12.082;2023-07-31T10:25:40;98907.09;;;25.17;40.66
16100;BME280;8154;50.830;12.082;2023-07-31T10:28:12;98906.63;;;25.20;40.67
16100;BME280;8154;50.830;12.082;2023-07-31T10:30:40;98899.66;;;25.19;40.70
16100;BME280;8154;50.830;12.082;2023-07-31T10:33:08;98897.22;;;25.18;40.64
16100;BME280;8154;50.830;12.082;2023-07-31T10:35:36;98888.19;;;25.12;40.51
16100;BME280;8154;50.830;12.082;2023-07-31T10:38:19;98895.81;;;25.15;40.62
16100;BME280;8154;50.830;12.082;2023-07-31T10:41:14;98897.66;;;25.15;40.59
16100;BME280;8154;50.830;12.082;2023-07-31T10:43:41;98889.47;;;25.10;40.65
16100;BME280;8154;50.830;12.082;2023-07-31T10:46:09;98887.78;;;25.15;40.66
16100;BME280;8154;50.830;12.082;2023-07-31T10:48:37;98892.91;;;25.17;40.64
16100;BME280;8154;50.830;12.082;2023-07-31T10:51:08;98883.69;;;25.13;40.42
16100;BME280;8154;50.830;12.082;2023-07-31T10:53:45;98879.59;;;25.10;40.71
16100;BME280;8154;50.830;12.082;2023-07-31T10:56:12;98885.09;;;25.15;40.35
16100;BME280;8154;50.830;12.082;2023-07-31T10:58:45;98884.06;;;25.16;40.39
16100;BME280;8154;50.830;12.082;2023-07-31T11:01:13;98883.00;;;25.17;40.38
16100;BME280;8154;50.830;12.082;2023-07-31T11:03:47;98887.56;;;25.17;40.18
16100;BME280;8154;50.830;12.082;2023-07-31T11:06:16;98880.56;;;25.16;40.49
16100;BME280;8154;50.830;12.082;2023-07-31T11:08:45;98879.53;;;25.17;40.29
16100;BME280;8154;50.830;12.082;2023-07-31T11:11:13;98873.38;;;25.16;40.61
16100;BME280;8154;50.830;12.082;2023-07-31T11:13:46;98868.25;;;25.15;40.44
16100;BME280;8154;50.830;12.082;2023-07-31T11:16:15;98864.72;;;25.14;40.57
16100;BME280;8154;50.830;12.082;2023-07-31T11:18:43;98865.56;;;25.15;40.34
16100;BME280;8154;50.830;12.082;2023-07-31T11:21:19;98863.94;;;25.14;40.49
16100;BME280;8154;50.830;12.082;2023-07-31T11:23:48;98849.56;;;25.08;40.44
16100;BME280;8154;50.830;12.082;2023-07-31T11:26:17;98839.31;;;25.05;40.28
16100;BME280;8154;50.830;12.082;2023-07-31T11:28:47;98848.53;;;25.09;40.55
16100;BME280;8154;50.830;12.082;2023-07-31T11:31:14;98847.44;;;25.17;40.15
16100;BME280;8154;50.830;12.082;2023-07-31T11:33:43;98833.69;;;25.13;40.24
16100;BME280;8154;50.830;12.082;2023-07-31T11:36:15;98828.19;;;25.08;40.58
16100;BME280;8154;50.830;12.082;2023-07-31T11:38:43;98829.97;;;25.14;40.29
16100;BME280;8154;50.830;12.082;2023-07-31T11:41:09;98830.81;;;25.15;40.34
16100;BME280;8154;50.830;12.082;2023-07-31T11:43:37;98828.97;;;25.15;40.17
16100;BME280;8154;50.830;12.082;2023-07-31T11:46:05;98830.34;;;25.18;40.40
16100;BME280;8154;50.830;12.082;2023-07-31T11:48:36;98835.94;;;25.16;40.53
16100;BME280;8154;50.830;12.082;2023-07-31T11:51:05;98830.41;;;25.11;40.30
16100;BME280;8154;50.830;12.082;2023-07-31T11:53:53;98834.31;;;25.15;40.27
16100;BME280;8154;50.830;12.082;2023-07-31T11:56:24;98838.00;;;25.14;40.20
16100;BME280;8154;50.830;12.082;2023-07-31T11:58:58;98832.03;;;25.12;40.16
16100;BME280;8154;50.830;12.082;2023-07-31T12:01:28;98829.19;;;25.14;40.34
16100;BME280;8154;50.830;12.082;2023-07-31T12:03:56;98825.66;;;25.13;40.16
16100;BME280;8154;50.830;12.082;2023-07-31T12:06:37;98826.84;;;25.17;40.44
16100;BME280;8154;50.830;12.082;2023-07-31T12:09:05;98822.34;;;25.18;40.34
16100;BME280;8154;50.830;12.082;2023-07-31T12:11:43;98810.66;;;25.12;40.29
16100;BME280;8154;50.830;12.082;2023-07-31T12:14:26;98812.69;;;25.17;40.22
16100;BME280;8154;50.830;12.082;2023-07-31T12:16:56;98805.47;;;25.17;40.24
16100;BME280;8154;50.830;12.082;2023-07-31T12:19:23;98792.53;;;25.14;40.46
16100;BME280;8154;50.830;12.082;2023-07-31T12:21:49;98792.31;;;25.16;40.57
16100;BME280;8154;50.830;12.082;2023-07-31T12:24:18;98800.34;;;25.16;40.33
16100;BME280;8154;50.830;12.082;2023-07-31T12:26:46;98807.34;;;25.17;40.63
16100;BME280;8154;50.830;12.082;2023-07-31T12:29:13;98806.06;;;25.19;40.43
16100;BME280;8154;50.830;12.082;2023-07-31T12:31:42;98786.53;;;25.19;40.46
16100;BME280;8154;50.830;12.082;2023-07-31T12:34:17;98783.63;;;25.20;40.55
16100;BME280;8154;50.830;12.082;2023-07-31T12:36:44;98773.59;;;25.16;40.76
16100;BME280;8154;50.830;12.082;2023-07-31T12:39:12;98792.47;;;25.21;40.77
16100;BME280;8154;50.830;12.082;2023-07-31T12:41:41;98785.13;;;25.16;40.55
16100;BME280;8154;50.830;12.082;2023-07-31T12:44:08;98771.16;;;25.14;40.77
16100;BME280;8154;50.830;12.082;2023-07-31T12:46:36;98779.31;;;25.19;40.66
16100;BME280;8154;50.830;12.082;2023-07-31T12:49:02;98747.59;;;25.05;40.77
16100;BME280;8154;50.830;12.082;2023-07-31T12:51:30;98776.81;;;25.24;40.56
16100;BME280;8154;50.830;12.082;2023-07-31T12:53:57;98773.06;;;25.25;40.44
16100;BME280;8154;50.830;12.082;2023-07-31T12:56:24;98761.09;;;25.28;40.52
16100;BME280;8154;50.830;12.082;2023-07-31T12:58:51;98760.31;;;25.27;40.49
16100;BME280;8154;50.830;12.082;2023-07-31T13:01:18;98759.72;;;25.25;40.69
16100;BME280;8154;50.830;12.082;2023-07-31T13:03:46;98760.53;;;25.26;40.78
16100;BME280;8154;50.830;12.082;2023-07-31T13:06:14;98768.56;;;25.26;40.87
16100;BME280;8154;50.830;12.082;2023-07-31T13:08:41;98754.59;;;25.24;40.77
16100;BME280;8154;50.830;12.082;2023-07-31T13:11:08;98754.59;;;25.24;40.85
16100;BME280;8154;50.830;12.082;2023-07-31T13:13:36;98749.47;;;25.22;40.47